sensor_id;sensor_type;location;lat;lon;timestamp;pressure;altitude;pressure_sealevel;temperature;humidity
61039;BME280;46919;45.816;3.104;2023-01-29T00:01:36;98714.06;;;0.57;88.75
61039;BME280;46919;45.816;3.104;2023-01-29T00:04:02;98712.41;;;0.56;89.09
61039;BME280;46919;45.816;3.104;2023-01-29T00:06:27;98716.91;;;0.56;89.07
61039;BME280;46919;45.816;3.104;2023-01-29T00:08:53;98712.28;;;0.58;89.02
61039;BME280;46919;45.816;3.104;2023-01-29T00:11:18;98716.59;;;0.59;88.86
61039;BME280;46919;45.816;3.104;2023-01-29T00:13:44;98711.72;;;0.54;89.30
61039;BME280;46919;45.816;3.104;2023-01-29T00:16:10;98717.88;;;0.54;89.34
61039;BME280;46919;45.816;3.104;2023-01-29T00:18:39;98709.06;;;0.54;88.63
61039;BME280;46919;45.816;3.104;2023-01-29T00:21:13;98717.03;;;0.54;88.88
61039;BME280;46919;45.816;3.104;2023-01-29T00:23:40;98707.25;;;0.54;88.43
61039;BME280;46919;45.816;3.104;2023-01-29T00:26:05;98710.59;;;0.57;88.63
61039;BME280;46919;45.816;3.104;2023-01-29T00:28:31;98715.50;;;0.51;89.04
61039;BME280;46919;45.816;3.104;2023-01-29T00:30:56;98714.66;;;0.51;88.92
61039;BME280;46919;45.816;3.104;2023-01-29T00:33:22;98719.56;;;0.56;88.53
61039;BME280;46919;45.816;3.104;2023-01-29T00:35:47;98713.25;;;0.57;89.05
61039;BME280;46919;45.816;3.104;2023-01-29T00:38:13;98704.03;;;0.51;88.69
61039;BME280;46919;45.816;3.104;2023-01-29T00:40:39;98702.88;;;0.53;88.57
61039;BME280;46919;45.816;3.104;2023-01-29T00:43:23;98697.56;;;0.53;88.26
61039;BME280;46919;45.816;3.104;2023-01-29T00:46:08;98698.44;;;0.54;88.14
61039;BME280;46919;45.816;3.104;2023-01-29T00:48:33;98697.03;;;0.50;88.23
61039;BME280;46919;45.816;3.104;2023-01-29T00:51:00;98697.84;;;0.50;88.11
61039;BME280;46919;45.816;3.104;2023-01-29T00:53:25;98699.00;;;0.48;88.26
61039;BME280;46919;45.816;3.104;2023-01-29T00:55:51;98701.50;;;0.49;88.12
61039;BME280;46919;45.816;3.104;2023-01-29T00:58:16;98702.19;;;0.51;87.54
61039;BME280;46919;45.816;3.104;2023-01-29T01:00:47;98707.78;;;0.48;87.79
61039;BME280;46919;45.816;3.104;2023-01-29T01:03:13;98703.44;;;0.47;87.82
61039;BME280;46919;45.816;3.104;2023-01-29T01:05:39;98706.69;;;0.51;88.05
61039;BME280;46919;45.816;3.104;2023-01-29T01:08:07;98703.44;;;0.47;87.85
61039;BME280;46919;45.816;3.104;2023-01-29T01:11:01;98703.16;;;0.50;87.40
61039;BME280;46919;45.816;3.104;2023-01-29T01:13:28;98710.72;;;0.45;87.32
61039;BME280;46919;45.816;3.104;2023-01-29T01:15:53;98713.53;;;0.44;87.56
61039;BME280;46919;45.816;3.104;2023-01-29T01:18:19;98703.03;;;0.42;87.03
61039;BME280;46919;45.816;3.104;2023-01-29T01:20:46;98700.38;;;0.42;86.86
61039;BME280;46919;45.816;3.104;2023-01-29T01:23:18;98696.75;;;0.43;87.06
61039;BME280;46919;45.816;3.104;2023-01-29T01:25:44;98698.00;;;0.39;87.29
61039;BME280;46919;45.816;3.104;2023-01-29T01:28:10;98696.75;;;0.43;86.74
61039;BME280;46919;45.816;3.104;2023-01-29T01:30:35;98704.44;;;0.46;86.54
61039;BME280;46919;45.816;3.104;2023-01-29T01:33:01;98701.06;;;0.44;86.74
61039;BME280;46919;45.816;3.104;2023-01-29T01:35:26;98707.38;;;0.43;86.64
61039;BME280;46919;45.816;3.104;2023-01-29T01:37:52;98697.72;;;0.42;86.66
61039;BME280;46919;45.816;3.104;2023-01-29T01:40:21;98708.63;;;0.39;86.51
61039;BME280;46919;45.816;3.104;2023-01-29T01:42:51;98719.28;;;0.39;87.09
61039;BME280;46919;45.816;3.104;2023-01-29T01:47:53;98724.44;;;0.41;86.50
61039;BME280;46919;45.816;3.104;2023-01-29T01:50:26;98729.63;;;0.42;86.65
61039;BME280;46919;45.816;3.104;2023-01-29T01:52:57;98732.56;;;0.39;86.54
61039;BME280;46919;45.816;3.104;2023-01-29T01:55:26;98731.72;;;0.39;86.91
61039;BME280;46919;45.816;3.104;2023-01-29T01:57:57;98735.38;;;0.38;87.09
61039;BME280;46919;45.816;3.104;2023-01-29T02:00:25;98732.16;;;0.34;87.71
61039;BME280;46919;45.816;3.104;2023-01-29T02:02:51;98728.66;;;0.33;88.01
61039;BME280;46919;45.816;3.104;2023-01-29T02:05:38;98727.38;;;0.38;87.36
61039;BME280;46919;45.816;3.104;2023-01-29T02:08:28;98722.19;;;0.36;87.37
61039;BME280;46919;45.816;3.104;2023-01-29T02:11:13;98727.53;;;0.36;87.79
61039;BME280;46919;45.816;3.104;2023-01-29T02:13:39;98729.06;;;0.29;88.12
61039;BME280;46919;45.816;3.104;2023-01-29T02:16:04;98733.38;;;0.30;88.11
61039;BME280;46919;45.816;3.104;2023-01-29T02:18:30;98728.06;;;0.30;88.24
61039;BME280;46919;45.816;3.104;2023-01-29T02:34:40;98752.41;;;0.25;88.68
61039;BME280;46919;45.816;3.104;2023-01-29T02:37:34;98757.19;;;0.22;88.71
61039;BME280;46919;45.816;3.104;2023-01-29T02:40:21;98759.97;;;0.20;89.16
61039;BME280;46919;45.816;3.104;2023-01-29T02:42:57;98750.91;;;0.23;89.75
61039;BME280;46919;45.816;3.104;2023-01-29T02:51:33;98749.63;;;0.27;89.30
61039;BME280;46919;45.816;3.104;2023-01-29T02:54:15;98759.44;;;0.26;89.07
61039;BME280;46919;45.816;3.104;2023-01-29T02:57:16;98764.03;;;0.24;88.65
61039;BME280;46919;45.816;3.104;2023-01-29T03:00:26;98764.47;;;0.20;89.23
61039;BME280;46919;45.816;3.104;2023-01-29T03:02:56;98774.81;;;0.23;89.55
61039;BME280;46919;45.816;3.104;2023-01-29T03:08:13;98774.53;;;0.26;88.57
61039;BME280;46919;45.816;3.104;2023-01-29T03:10:50;98760.66;;;0.22;88.39
61039;BME280;46919;45.816;3.104;2023-01-29T03:15:51;98778.31;;;0.23;88.76
61039;BME280;46919;45.816;3.104;2023-01-29T03:18:27;98778.03;;;0.16;88.67
61039;BME280;46919;45.816;3.104;2023-01-29T03:20:59;98781.34;;;0.09;89.17
61039;BME280;46919;45.816;3.104;2023-01-29T03:23:28;98794.38;;;0.12;89.61
61039;BME280;46919;45.816;3.104;2023-01-29T03:26:15;98801.69;;;0.20;89.80
61039;BME280;46919;45.816;3.104;2023-01-29T03:29:03;98796.34;;;0.20;88.76
61039;BME280;46919;45.816;3.104;2023-01-29T03:31:48;98792.84;;;0.19;89.54
61039;BME280;46919;45.816;3.104;2023-01-29T03:34:42;98789.63;;;0.15;88.95
61039;BME280;46919;45.816;3.104;2023-01-29T03:37:22;98793.28;;;0.14;89.04
61039;BME280;46919;45.816;3.104;2023-01-29T03:39:51;98794.94;;;0.15;88.60
61039;BME280;46919;45.816;3.104;2023-01-29T03:42:25;98788.78;;;0.15;88.19
61039;BME280;46919;45.816;3.104;2023-01-29T03:44:59;98793.41;;;0.13;88.96
61039;BME280;46919;45.816;3.104;2023-01-29T03:50:58;98795.22;;;0.12;88.86
61039;BME280;46919;45.816;3.104;2023-01-29T03:56:27;98807.81;;;0.10;89.20
61039;BME280;46919;45.816;3.104;2023-01-29T04:04:25;98807.66;;;0.12;88.61
61039;BME280;46919;45.816;3.104;2023-01-29T04:06:55;98808.50;;;0.12;88.40
61039;BME280;46919;45.816;3.104;2023-01-29T04:09:31;98817.34;;;0.13;87.99
61039;BME280;46919;45.816;3.104;2023-01-29T04:12:04;98803.03;;;0.14;88.59
61039;BME280;46919;45.816;3.104;2023-01-29T04:14:35;98809.50;;;0.11;88.60
61039;BME280;46919;45.816;3.104;2023-01-29T04:17:08;98808.63;;;0.11;88.35
61039;BME280;46919;45.816;3.104;2023-01-29T04:19:35;98812.56;;;0.07;88.17
61039;BME280;46919;45.816;3.104;2023-01-29T04:22:31;98804.72;;;0.05;88.44
61039;BME280;46919;45.816;3.104;2023-01-29T04:24:59;98808.34;;;0.04;88.77
61039;BME280;46919;45.816;3.104;2023-01-29T04:35:20;98808.34;;;0.04;89.64
61039;BME280;46919;45.816;3.104;2023-01-29T04:43:40;98793.09;;;0.06;88.99
61039;BME280;46919;45.816;3.104;2023-01-29T04:46:15;98798.41;;;0.06;89.21
61039;BME280;46919;45.816;3.104;2023-01-29T04:56:38;98788.19;;;0.02;89.06
61039;BME280;46919;45.816;3.104;2023-01-29T04:59:08;98786.38;;;0.02;89.47
61039;BME280;46919;45.816;3.104;2023-01-29T05:01:37;98784.56;;;0.03;89.36
61039;BME280;46919;45.816;3.104;2023-01-29T05:04:13;98791.56;;;0.04;88.73
61039;BME280;46919;45.816;3.104;2023-01-29T05:06:40;98793.22;;;0.05;88.78
61039;BME280;46919;45.816;3.104;2023-01-29T05:09:07;98789.31;;;-0.01;88.73
61039;BME280;46919;45.816;3.104;2023-01-29T05:11:34;98793.66;;;0.00;88.89
61039;BME280;46919;45.816;3.104;2023-01-29T05:14:03;98791.69;;;0.02;89.18
61039;BME280;46919;45.816;3.104;2023-01-29T05:16:37;98789.31;;;-0.01;89.36
61039;BME280;46919;45.816;3.104;2023-01-29T05:19:11;98790.28;;;-0.02;89.29
61039;BME280;46919;45.816;3.104;2023-01-29T05:21:39;98802.16;;;-0.06;90.06
61039;BME280;46919;45.816;3.104;2023-01-29T05:26:36;98796.00;;;-0.07;89.48
61039;BME280;46919;45.816;3.104;2023-01-29T05:29:20;98805.09;;;-0.09;89.08
61039;BME280;46919;45.816;3.104;2023-01-29T05:31:46;98801.44;;;-0.08;89.12
61039;BME280;46919;45.816;3.104;2023-01-29T05:34:11;98805.78;;;-0.07;89.14
61039;BME280;46919;45.816;3.104;2023-01-29T05:36:37;98810.13;;;-0.06;89.27
61039;BME280;46919;45.816;3.104;2023-01-29T05:39:02;98812.41;;;-0.02;88.72
61039;BME280;46919;45.816;3.104;2023-01-29T05:41:28;98808.88;;;-0.02;88.98
61039;BME280;46919;45.816;3.104;2023-01-29T05:43:53;98831.25;;;-0.05;88.39
61039;BME280;46919;45.816;3.104;2023-01-29T05:46:18;98835.03;;;-0.07;88.67
61039;BME280;46919;45.816;3.104;2023-01-29T05:48:44;98832.63;;;-0.10;88.97
61039;BME280;46919;45.816;3.104;2023-01-29T05:51:09;98835.41;;;-0.12;88.73
61039;BME280;46919;45.816;3.104;2023-01-29T05:53:35;98845.66;;;-0.07;88.07
61039;BME280;46919;45.816;3.104;2023-01-29T05:56:01;98845.66;;;-0.07;88.37
61039;BME280;46919;45.816;3.104;2023-01-29T05:58:26;98853.75;;;-0.09;88.21
61039;BME280;46919;45.816;3.104;2023-01-29T06:00:52;98860.28;;;-0.13;88.44
61039;BME280;46919;45.816;3.104;2023-01-29T06:03:17;98859.06;;;-0.09;88.66
61039;BME280;46919;45.816;3.104;2023-01-29T06:05:43;98863.97;;;-0.04;88.58
61039;BME280;46919;45.816;3.104;2023-01-29T06:08:08;98861.03;;;-0.11;88.40
61039;BME280;46919;45.816;3.104;2023-01-29T06:10:34;98856.94;;;-0.15;88.42
61039;BME280;46919;45.816;3.104;2023-01-29T06:12:59;98855.97;;;-0.14;89.07
61039;BME280;46919;45.816;3.104;2023-01-29T06:15:25;98846.88;;;-0.11;88.78
61039;BME280;46919;45.816;3.104;2023-01-29T06:17:54;98846.88;;;-0.11;88.88
61039;BME280;46919;45.816;3.104;2023-01-29T06:20:20;98847.13;;;-0.14;89.09
61039;BME280;46919;45.816;3.104;2023-01-29T06:22:45;98851.63;;;-0.15;89.30
61039;BME280;46919;45.816;3.104;2023-01-29T06:25:11;98856.94;;;-0.15;89.33
61039;BME280;46919;45.816;3.104;2023-01-29T06:27:36;98857.78;;;-0.14;89.48
61039;BME280;46919;45.816;3.104;2023-01-29T06:30:05;98865.03;;;-0.16;89.30
61039;BME280;46919;45.816;3.104;2023-01-29T06:32:31;98871.91;;;-0.14;89.64
61039;BME280;46919;45.816;3.104;2023-01-29T06:34:56;98864.78;;;-0.13;89.46
61039;BME280;46919;45.816;3.104;2023-01-29T06:37:22;98866.72;;;-0.15;89.20
61039;BME280;46919;45.816;3.104;2023-01-29T06:39:47;98861.84;;;-0.10;89.08
61039;BME280;46919;45.816;3.104;2023-01-29T06:42:13;98858.50;;;-0.12;88.57
61039;BME280;46919;45.816;3.104;2023-01-29T06:44:38;98865.34;;;-0.10;88.71
61039;BME280;46919;45.816;3.104;2023-01-29T06:47:04;98851.94;;;-0.08;88.89
61039;BME280;46919;45.816;3.104;2023-01-29T06:49:29;98857.38;;;-0.10;88.94
61039;BME280;46919;45.816;3.104;2023-01-29T06:51:54;98857.50;;;-0.11;88.55
61039;BME280;46919;45.816;3.104;2023-01-29T06:54:20;98851.22;;;-0.10;88.40
61039;BME280;46919;45.816;3.104;2023-01-29T06:56:45;98848.44;;;-0.09;88.51
61039;BME280;46919;45.816;3.104;2023-01-29T06:59:11;98859.19;;;-0.10;88.50
61039;BME280;46919;45.816;3.104;2023-01-29T07:01:40;98863.69;;;-0.11;88.50
61039;BME280;46919;45.816;3.104;2023-01-29T07:04:08;98856.41;;;-0.09;88.23
61039;BME280;46919;45.816;3.104;2023-01-29T07:06:33;98850.13;;;-0.08;89.04
61039;BME280;46919;45.816;3.104;2023-01-29T07:08:59;98861.84;;;-0.10;88.28
61039;BME280;46919;45.816;3.104;2023-01-29T07:11:24;98850.53;;;-0.12;88.45
61039;BME280;46919;45.816;3.104;2023-01-29T07:13:50;98850.53;;;-0.12;88.88
61039;BME280;46919;45.816;3.104;2023-01-29T07:16:15;98849.53;;;-0.11;89.06
61039;BME280;46919;45.816;3.104;2023-01-29T07:18:41;98841.56;;;-0.11;88.53
61039;BME280;46919;45.816;3.104;2023-01-29T07:21:07;98840.59;;;-0.10;88.93
61039;BME280;46919;45.816;3.104;2023-01-29T07:23:34;98843.25;;;-0.10;88.34
61039;BME280;46919;45.816;3.104;2023-01-29T07:26:01;98837.25;;;-0.12;88.55
61039;BME280;46919;45.816;3.104;2023-01-29T07:28:27;98838.22;;;-0.13;88.54
61039;BME280;46919;45.816;3.104;2023-01-29T07:30:58;98835.53;;;-0.13;88.96
61039;BME280;46919;45.816;3.104;2023-01-29T07:33:24;98842.44;;;-0.11;88.56
61039;BME280;46919;45.816;3.104;2023-01-29T07:35:50;98837.81;;;-0.09;88.60
61039;BME280;46919;45.816;3.104;2023-01-29T07:38:15;98842.16;;;-0.08;88.26
61039;BME280;46919;45.816;3.104;2023-01-29T07:40:41;98846.34;;;-0.05;88.49
61039;BME280;46919;45.816;3.104;2023-01-29T07:43:07;98862.03;;;-0.02;87.71
61039;BME280;46919;45.816;3.104;2023-01-29T07:45:37;98866.66;;;-0.04;88.07
61039;BME280;46919;45.816;3.104;2023-01-29T07:48:04;98879.94;;;-0.04;88.22
61039;BME280;46919;45.816;3.104;2023-01-29T07:50:31;98885.50;;;-0.07;88.30
61039;BME280;46919;45.816;3.104;2023-01-29T07:52:57;98892.66;;;-0.08;88.27
61039;BME280;46919;45.816;3.104;2023-01-29T07:55:23;98888.03;;;-0.06;88.14
61039;BME280;46919;45.816;3.104;2023-01-29T07:57:59;98881.50;;;-0.02;88.31
61039;BME280;46919;45.816;3.104;2023-01-29T08:00:25;98888.03;;;-0.06;88.05
61039;BME280;46919;45.816;3.104;2023-01-29T08:02:50;98892.94;;;-0.01;87.83
61039;BME280;46919;45.816;3.104;2023-01-29T08:05:16;98895.34;;;0.02;87.24
61039;BME280;46919;45.816;3.104;2023-01-29T08:07:41;98906.53;;;0.06;87.63
61039;BME280;46919;45.816;3.104;2023-01-29T08:10:07;98897.59;;;0.07;87.11
61039;BME280;46919;45.816;3.104;2023-01-29T08:12:33;98903.50;;;0.10;87.01
61039;BME280;46919;45.816;3.104;2023-01-29T08:14:58;98909.50;;;0.12;86.62
61039;BME280;46919;45.816;3.104;2023-01-29T08:17:24;98919.44;;;0.10;86.79
61039;BME280;46919;45.816;3.104;2023-01-29T08:19:49;98915.69;;;0.13;86.73
61039;BME280;46919;45.816;3.104;2023-01-29T08:22:15;98912.03;;;0.14;86.38
61039;BME280;46919;45.816;3.104;2023-01-29T08:24:41;98926.31;;;0.13;86.18
61039;BME280;46919;45.816;3.104;2023-01-29T08:27:06;98926.19;;;0.14;85.84
61039;BME280;46919;45.816;3.104;2023-01-29T08:29:32;98926.19;;;0.14;85.90
61039;BME280;46919;45.816;3.104;2023-01-29T08:31:57;98927.84;;;0.15;85.97
61039;BME280;46919;45.816;3.104;2023-01-29T08:34:23;98939.22;;;0.17;85.89
61039;BME280;46919;45.816;3.104;2023-01-29T08:36:48;98936.41;;;0.19;85.90
61039;BME280;46919;45.816;3.104;2023-01-29T08:39:14;98939.94;;;0.29;85.47
61039;BME280;46919;45.816;3.104;2023-01-29T08:41:39;98942.03;;;0.26;85.46
61039;BME280;46919;45.816;3.104;2023-01-29T08:44:05;98948.19;;;0.26;85.42
61039;BME280;46919;45.816;3.104;2023-01-29T08:46:30;98938.66;;;0.24;85.60
61039;BME280;46919;45.816;3.104;2023-01-29T08:48:56;98950.84;;;0.26;85.93
61039;BME280;46919;45.816;3.104;2023-01-29T08:51:23;98952.41;;;0.29;85.57
61039;BME280;46919;45.816;3.104;2023-01-29T08:53:49;98951.69;;;0.27;86.02
61039;BME280;46919;45.816;3.104;2023-01-29T08:56:14;98946.84;;;0.32;85.07
61039;BME280;46919;45.816;3.104;2023-01-29T08:58:40;98948.38;;;0.34;85.54
61039;BME280;46919;45.816;3.104;2023-01-29T09:01:11;98961.25;;;0.39;85.24
61039;BME280;46919;45.816;3.104;2023-01-29T09:03:37;98961.53;;;0.36;85.38
61039;BME280;46919;45.816;3.104;2023-01-29T09:06:07;98965.63;;;0.40;84.40
61039;BME280;46919;45.816;3.104;2023-01-29T09:08:32;98968.53;;;0.37;84.94
61039;BME280;46919;45.816;3.104;2023-01-29T09:10:58;98962.53;;;0.35;85.13
61039;BME280;46919;45.816;3.104;2023-01-29T09:13:24;98966.31;;;0.42;85.05
61039;BME280;46919;45.816;3.104;2023-01-29T09:15:50;98963.13;;;0.48;85.07
61039;BME280;46919;45.816;3.104;2023-01-29T09:18:15;98969.16;;;0.50;83.99
61039;BME280;46919;45.816;3.104;2023-01-29T09:20:41;98967.66;;;0.58;84.09
61039;BME280;46919;45.816;3.104;2023-01-29T09:23:07;98962.03;;;0.51;83.97
61039;BME280;46919;45.816;3.104;2023-01-29T09:25:34;98962.03;;;0.51;84.27
61039;BME280;46919;45.816;3.104;2023-01-29T09:28:00;98964.56;;;0.52;83.71
61039;BME280;46919;45.816;3.104;2023-01-29T09:30:25;98968.03;;;0.53;84.61
61039;BME280;46919;45.816;3.104;2023-01-29T09:32:51;98969.75;;;0.54;84.53
61039;BME280;46919;45.816;3.104;2023-01-29T09:35:16;98977.28;;;0.59;84.78
61039;BME280;46919;45.816;3.104;2023-01-29T09:37:41;98980.94;;;0.58;84.68
61039;BME280;46919;45.816;3.104;2023-01-29T09:40:22;98985.88;;;0.62;83.85
61039;BME280;46919;45.816;3.104;2023-01-29T09:43:00;98981.25;;;0.64;84.07
61039;BME280;46919;45.816;3.104;2023-01-29T09:45:27;98983.50;;;0.69;83.74
61039;BME280;46919;45.816;3.104;2023-01-29T09:48:02;98992.19;;;0.71;84.06
61039;BME280;46919;45.816;3.104;2023-01-29T09:50:42;98996.69;;;0.70;83.76
61039;BME280;46919;45.816;3.104;2023-01-29T09:55:53;99004.78;;;0.69;83.21
61039;BME280;46919;45.816;3.104;2023-01-29T09:58:26;99005.22;;;0.74;83.07
61039;BME280;46919;45.816;3.104;2023-01-29T10:03:42;99005.38;;;0.82;83.08
61039;BME280;46919;45.816;3.104;2023-01-29T10:15:05;99016.16;;;0.81;82.67
61039;BME280;46919;45.816;3.104;2023-01-29T10:20:52;99008.91;;;0.83;82.54
61039;BME280;46919;45.816;3.104;2023-01-29T10:25:51;99019.09;;;0.78;82.52
61039;BME280;46919;45.816;3.104;2023-01-29T10:28:20;99021.63;;;0.79;82.30
61039;BME280;46919;45.816;3.104;2023-01-29T10:30:49;99021.34;;;0.82;82.10
61039;BME280;46919;45.816;3.104;2023-01-29T10:33:37;99022.34;;;0.81;81.71
61039;BME280;46919;45.816;3.104;2023-01-29T10:36:07;99028.09;;;0.86;81.83
61039;BME280;46919;45.816;3.104;2023-01-29T10:41:16;99025.59;;;0.95;81.30
61039;BME280;46919;45.816;3.104;2023-01-29T10:44:14;99023.38;;;1.00;80.54
61039;BME280;46919;45.816;3.104;2023-01-29T10:55:20;99004.66;;;1.11;81.09
61039;BME280;46919;45.816;3.104;2023-01-29T10:58:16;99003.66;;;1.12;79.79
61039;BME280;46919;45.816;3.104;2023-01-29T11:00:40;99006.84;;;1.06;79.96
61039;BME280;46919;45.816;3.104;2023-01-29T11:03:21;99006.31;;;1.12;80.13
61039;BME280;46919;45.816;3.104;2023-01-29T11:08:30;99005.50;;;1.21;79.12
61039;BME280;46919;45.816;3.104;2023-01-29T11:11:16;99003.97;;;1.29;78.09
61039;BME280;46919;45.816;3.104;2023-01-29T11:13:57;99008.31;;;1.30;78.30
61039;BME280;46919;45.816;3.104;2023-01-29T11:16:26;98998.19;;;1.23;78.08
61039;BME280;46919;45.816;3.104;2023-01-29T11:18:58;99003.38;;;1.25;78.50
61039;BME280;46919;45.816;3.104;2023-01-29T11:21:26;99006.06;;;1.35;77.37
61039;BME280;46919;45.816;3.104;2023-01-29T11:24:12;98995.84;;;1.30;75.92
61039;BME280;46919;45.816;3.104;2023-01-29T11:26:42;98994.03;;;1.31;76.80
61039;BME280;46919;45.816;3.104;2023-01-29T11:29:45;98989.38;;;1.33;76.24
61039;BME280;46919;45.816;3.104;2023-01-29T11:37:39;98975.78;;;1.55;75.69
61039;BME280;46919;45.816;3.104;2023-01-29T11:42:42;98963.72;;;1.71;75.66
61039;BME280;46919;45.816;3.104;2023-01-29T11:45:28;98962.88;;;1.80;74.31
61039;BME280;46919;45.816;3.104;2023-01-29T11:47:59;98951.38;;;1.89;74.90
61039;BME280;46919;45.816;3.104;2023-01-29T11:50:27;98944.75;;;1.93;74.84
61039;BME280;46919;45.816;3.104;2023-01-29T11:52:53;98940.97;;;1.96;74.20
61039;BME280;46919;45.816;3.104;2023-01-29T11:55:22;98949.22;;;2.03;74.24
61039;BME280;46919;45.816;3.104;2023-01-29T11:58:33;98950.50;;;1.89;74.21
61039;BME280;46919;45.816;3.104;2023-01-29T12:00:40;98943.25;;;1.81;74.63
61039;BME280;46919;45.816;3.104;2023-01-29T12:03:33;98933.13;;;1.85;73.54
61039;BME280;46919;45.816;3.104;2023-01-29T12:08:36;98929.03;;;1.90;73.41
61039;BME280;46919;45.816;3.104;2023-01-29T12:11:12;98925.50;;;1.99;73.57
61039;BME280;46919;45.816;3.104;2023-01-29T12:13:40;98923.66;;;2.10;72.67
61039;BME280;46919;45.816;3.104;2023-01-29T12:21:52;98915.25;;;2.14;72.21
61039;BME280;46919;45.816;3.104;2023-01-29T12:27:45;98899.53;;;2.39;70.76
61039;BME280;46919;45.816;3.104;2023-01-29T12:30:16;98896.56;;;2.42;71.72
61039;BME280;46919;45.816;3.104;2023-01-29T12:33:12;98885.75;;;2.44;70.43
61039;BME280;46919;45.816;3.104;2023-01-29T12:35:48;98880.06;;;2.57;70.97
61039;BME280;46919;45.816;3.104;2023-01-29T12:38:22;98881.16;;;2.64;70.02
61039;BME280;46919;45.816;3.104;2023-01-29T12:40:56;98872.47;;;2.62;70.30
61039;BME280;46919;45.816;3.104;2023-01-29T12:46:00;98862.03;;;2.68;69.66
61039;BME280;46919;45.816;3.104;2023-01-29T12:48:31;98861.78;;;2.62;70.82
61039;BME280;46919;45.816;3.104;2023-01-29T12:51:05;98866.66;;;2.66;69.89
61039;BME280;46919;45.816;3.104;2023-01-29T12:53:46;98860.09;;;2.61;69.43
61039;BME280;46919;45.816;3.104;2023-01-29T12:56:31;98857.81;;;2.66;69.22
61039;BME280;46919;45.816;3.104;2023-01-29T12:59:00;98860.34;;;2.67;69.69
61039;BME280;46919;45.816;3.104;2023-01-29T13:01:35;98852.56;;;2.56;69.52
61039;BME280;46919;45.816;3.104;2023-01-29T13:06:32;98849.44;;;2.79;69.48
61039;BME280;46919;45.816;3.104;2023-01-29T13:09:06;98847.09;;;3.12;69.25
61039;BME280;46919;45.816;3.104;2023-01-29T13:11:39;98841.25;;;3.34;68.67
61039;BME280;46919;45.816;3.104;2023-01-29T13:14:18;98831.44;;;3.35;67.97
61039;BME280;46919;45.816;3.104;2023-01-29T13:16:48;98830.09;;;3.13;68.73
61039;BME280;46919;45.816;3.104;2023-01-29T13:19:42;98832.75;;;3.13;67.50
61039;BME280;46919;45.816;3.104;2023-01-29T13:22:24;98841.28;;;3.16;68.42
61039;BME280;46919;45.816;3.104;2023-01-29T13:24:50;98843.75;;;3.10;68.96
61039;BME280;46919;45.816;3.104;2023-01-29T13:27:27;98843.19;;;3.24;68.81
61039;BME280;46919;45.816;3.104;2023-01-29T13:29:54;98847.00;;;3.21;67.69
61039;BME280;46919;45.816;3.104;2023-01-29T13:32:24;98845.56;;;3.27;68.33
61039;BME280;46919;45.816;3.104;2023-01-29T13:34:52;98843.13;;;3.16;67.05
61039;BME280;46919;45.816;3.104;2023-01-29T13:37:37;98841.91;;;3.10;67.35
61039;BME280;46919;45.816;3.104;2023-01-29T13:40:06;98838.00;;;3.22;67.46
61039;BME280;46919;45.816;3.104;2023-01-29T13:45:05;98841.19;;;2.90;67.92
61039;BME280;46919;45.816;3.104;2023-01-29T13:47:37;98841.97;;;2.82;67.32
61039;BME280;46919;45.816;3.104;2023-01-29T13:50:09;98836.09;;;2.79;67.25
61039;BME280;46919;45.816;3.104;2023-01-29T13:53:01;98847.53;;;2.71;66.32
61039;BME280;46919;45.816;3.104;2023-01-29T13:55:31;98839.69;;;2.87;66.49
61039;BME280;46919;45.816;3.104;2023-01-29T14:00:58;98837.09;;;2.78;67.46
61039;BME280;46919;45.816;3.104;2023-01-29T14:13:48;98839.88;;;2.58;67.53
61039;BME280;46919;45.816;3.104;2023-01-29T14:18:51;98823.66;;;2.69;67.80
61039;BME280;46919;45.816;3.104;2023-01-29T14:21:21;98837.63;;;2.63;67.34
61039;BME280;46919;45.816;3.104;2023-01-29T14:23:54;98837.22;;;2.58;67.18
61039;BME280;46919;45.816;3.104;2023-01-29T14:26:25;98835.72;;;2.56;67.73
61039;BME280;46919;45.816;3.104;2023-01-29T14:29:17;98837.63;;;2.63;66.92
61039;BME280;46919;45.816;3.104;2023-01-29T14:34:59;98837.84;;;2.70;66.14
61039;BME280;46919;45.816;3.104;2023-01-29T14:37:37;98833.66;;;2.67;65.92
61039;BME280;46919;45.816;3.104;2023-01-29T14:42:38;98833.56;;;2.59;66.04
61039;BME280;46919;45.816;3.104;2023-01-29T14:51:23;98841.34;;;2.52;65.69
61039;BME280;46919;45.816;3.104;2023-01-29T14:54:00;98838.81;;;2.51;66.03
61039;BME280;46919;45.816;3.104;2023-01-29T14:56:33;98842.91;;;2.45;66.01
61039;BME280;46919;45.816;3.104;2023-01-29T15:01:29;98848.47;;;2.34;66.82
61039;BME280;46919;45.816;3.104;2023-01-29T15:06:46;98857.53;;;2.13;66.97
61039;BME280;46919;45.816;3.104;2023-01-29T15:09:25;98850.66;;;2.11;66.86
61039;BME280;46919;45.816;3.104;2023-01-29T15:12:12;98849.63;;;1.94;66.50
61039;BME280;46919;45.816;3.104;2023-01-29T15:14:45;98852.63;;;1.81;66.62
61039;BME280;46919;45.816;3.104;2023-01-29T15:17:27;98850.09;;;1.79;66.82
61039;BME280;46919;45.816;3.104;2023-01-29T15:19:54;98860.19;;;1.86;66.67
61039;BME280;46919;45.816;3.104;2023-01-29T15:22:21;98858.81;;;2.09;66.53
61039;BME280;46919;45.816;3.104;2023-01-29T15:25:09;98852.53;;;2.28;66.12
61039;BME280;46919;45.816;3.104;2023-01-29T15:27:41;98856.13;;;2.19;65.72
61039;BME280;46919;45.816;3.104;2023-01-29T15:30:14;98855.25;;;2.18;66.77
61039;BME280;46919;45.816;3.104;2023-01-29T15:32:40;98858.38;;;2.14;66.29
61039;BME280;46919;45.816;3.104;2023-01-29T15:35:34;98853.34;;;2.11;66.17
61039;BME280;46919;45.816;3.104;2023-01-29T15:40:29;98862.34;;;2.10;66.72
61039;BME280;46919;45.816;3.104;2023-01-29T15:42:54;98863.06;;;2.02;66.62
61039;BME280;46919;45.816;3.104;2023-01-29T15:45:30;98858.16;;;1.97;66.92
61039;BME280;46919;45.816;3.104;2023-01-29T15:48:14;98862.09;;;1.93;67.42
61039;BME280;46919;45.816;3.104;2023-01-29T15:50:42;98862.72;;;1.87;67.65
61039;BME280;46919;45.816;3.104;2023-01-29T15:53:20;98866.38;;;1.76;67.75
61039;BME280;46919;45.816;3.104;2023-01-29T15:55:48;98866.28;;;1.68;67.33
61039;BME280;46919;45.816;3.104;2023-01-29T15:58:23;98875.78;;;1.71;67.49
61039;BME280;46919;45.816;3.104;2023-01-29T16:00:54;98870.47;;;1.61;67.25
61039;BME280;46919;45.816;3.104;2023-01-29T16:03:22;98870.91;;;1.56;68.31
61039;BME280;46919;45.816;3.104;2023-01-29T16:05:48;98863.88;;;1.55;67.83
61039;BME280;46919;45.816;3.104;2023-01-29T16:08:14;98868.09;;;1.58;68.14